sensor_id;sensor_type;location;lat;lon;timestamp;temperature;humidity
66861;SHT31;53770;42.334;23.550;2022-07-29T00:00:50;17.23;75.79
66861;SHT31;53770;42.334;23.550;2022-07-29T00:03:17;17.24;75.65
66861;SHT31;53770;42.334;23.550;2022-07-29T00:05:43;17.21;75.63
66861;SHT31;53770;42.334;23.550;2022-07-29T00:08:10;17.20;75.53
66861;SHT31;53770;42.334;23.550;2022-07-29T00:10:37;17.17;75.58
66861;SHT31;53770;42.334;23.550;2022-07-29T00:13:04;17.17;75.64
66861;SHT31;53770;42.334;23.550;2022-07-29T00:15:32;17.20;75.48
66861;SHT31;53770;42.334;23.550;2022-07-29T00:17:59;17.21;75.70
66861;SHT31;53770;42.334;23.550;2022-07-29T00:20:26;17.25;75.60
66861;SHT31;53770;42.334;23.550;2022-07-29T00:22:52;17.24;75.66
66861;SHT31;53770;42.334;23.550;2022-07-29T00:25:19;17.28;75.34
66861;SHT31;53770;42.334;23.550;2022-07-29T00:27:46;17.24;75.32
66861;SHT31;53770;42.334;23.550;2022-07-29T00:30:13;17.23;75.61
66861;SHT31;53770;42.334;23.550;2022-07-29T00:32:41;17.16;75.16
66861;SHT31;53770;42.334;23.550;2022-07-29T00:35:08;17.06;75.58
66861;SHT31;53770;42.334;23.550;2022-07-29T00:37:52;16.94;75.97
66861;SHT31;53770;42.334;23.550;2022-07-29T00:40:20;16.87;76.36
66861;SHT31;53770;42.334;23.550;2022-07-29T00:42:48;16.81;76.47
66861;SHT31;53770;42.334;23.550;2022-07-29T00:45:16;16.77;76.71
66861;SHT31;53770;42.334;23.550;2022-07-29T00:47:44;16.75;76.67
66861;SHT31;53770;42.334;23.550;2022-07-29T00:50:12;16.69;76.60
66861;SHT31;53770;42.334;23.550;2022-07-29T00:52:40;16.69;76.87
66861;SHT31;53770;42.334;23.550;2022-07-29T00:55:09;16.68;77.13
66861;SHT31;53770;42.334;23.550;2022-07-29T00:57:38;16.72;76.94
66861;SHT31;53770;42.334;23.550;2022-07-29T01:00:07;16.81;76.76
66861;SHT31;53770;42.334;23.550;2022-07-29T01:02:34;16.86;76.46
66861;SHT31;53770;42.334;23.550;2022-07-29T01:05:04;16.86;76.33
66861;SHT31;53770;42.334;23.550;2022-07-29T01:07:32;16.87;76.24
66861;SHT31;53770;42.334;23.550;2022-07-29T01:10:01;16.90;76.18
66861;SHT31;53770;42.334;23.550;2022-07-29T01:12:29;16.93;75.89
66861;SHT31;53770;42.334;23.550;2022-07-29T01:14:58;16.93;75.60
66861;SHT31;53770;42.334;23.550;2022-07-29T01:17:28;16.91;75.63
66861;SHT31;53770;42.334;23.550;2022-07-29T01:20:06;16.89;75.37
66861;SHT31;53770;42.334;23.550;2022-07-29T01:22:49;16.83;75.48
66861;SHT31;53770;42.334;23.550;2022-07-29T01:25:32;16.75;75.61
66861;SHT31;53770;42.334;23.550;2022-07-29T01:28:32;16.70;75.86
66861;SHT31;53770;42.334;23.550;2022-07-29T01:31:02;16.70;75.65
66861;SHT31;53770;42.334;23.550;2022-07-29T01:33:31;16.62;75.50
66861;SHT31;53770;42.334;23.550;2022-07-29T01:36:43;16.44;76.02
66861;SHT31;53770;42.334;23.550;2022-07-29T01:39:12;16.35;76.24
66861;SHT31;53770;42.334;23.550;2022-07-29T01:41:48;16.36;76.00
66861;SHT31;53770;42.334;23.550;2022-07-29T01:44:21;16.28;76.32
66861;SHT31;53770;42.334;23.550;2022-07-29T01:46:53;16.28;76.35
66861;SHT31;53770;42.334;23.550;2022-07-29T01:49:23;16.25;76.43
66861;SHT31;53770;42.334;23.550;2022-07-29T01:51:53;16.14;76.62
66861;SHT31;53770;42.334;23.550;2022-07-29T01:54:25;16.15;76.70
66861;SHT31;53770;42.334;23.550;2022-07-29T01:56:55;16.08;77.01
66861;SHT31;53770;42.334;23.550;2022-07-29T01:59:25;16.05;77.17
66861;SHT31;53770;42.334;23.550;2022-07-29T02:01:54;16.08;77.01
66861;SHT31;53770;42.334;23.550;2022-07-29T02:04:21;16.05;76.97
66861;SHT31;53770;42.334;23.550;2022-07-29T02:06:51;16.05;77.14
66861;SHT31;53770;42.334;23.550;2022-07-29T02:09:19;16.08;77.02
66861;SHT31;53770;42.334;23.550;2022-07-29T02:11:51;16.04;76.90
66861;SHT31;53770;42.334;23.550;2022-07-29T02:14:20;16.04;77.09
66861;SHT31;53770;42.334;23.550;2022-07-29T02:16:52;16.03;77.02
66861;SHT31;53770;42.334;23.550;2022-07-29T02:19:21;15.94;77.30
66861;SHT31;53770;42.334;23.550;2022-07-29T02:21:51;15.96;77.48
66861;SHT31;53770;42.334;23.550;2022-07-29T02:24:20;16.00;77.29
66861;SHT31;53770;42.334;23.550;2022-07-29T02:26:49;16.04;77.11
66861;SHT31;53770;42.334;23.550;2022-07-29T02:29:17;16.05;76.73
66861;SHT31;53770;42.334;23.550;2022-07-29T02:31:49;16.05;76.73
66861;SHT31;53770;42.334;23.550;2022-07-29T02:34:17;16.05;76.81
66861;SHT31;53770;42.334;23.550;2022-07-29T02:36:45;16.05;76.59
66861;SHT31;53770;42.334;23.550;2022-07-29T02:39:13;16.07;76.67
66861;SHT31;53770;42.334;23.550;2022-07-29T02:41:43;16.07;76.50
66861;SHT31;53770;42.334;23.550;2022-07-29T02:44:12;16.07;76.73
66861;SHT31;53770;42.334;23.550;2022-07-29T02:46:45;16.04;76.35
66861;SHT31;53770;42.334;23.550;2022-07-29T02:49:17;15.89;76.69
66861;SHT31;53770;42.334;23.550;2022-07-29T02:51:49;15.80;76.90
66861;SHT31;53770;42.334;23.550;2022-07-29T02:54:26;15.70;77.35
66861;SHT31;53770;42.334;23.550;2022-07-29T02:56:58;15.63;77.81
66861;SHT31;53770;42.334;23.550;2022-07-29T02:59:27;15.65;77.97
66861;SHT31;53770;42.334;23.550;2022-07-29T03:01:57;15.67;77.65
66861;SHT31;53770;42.334;23.550;2022-07-29T03:04:27;15.63;77.75
66861;SHT31;53770;42.334;23.550;2022-07-29T03:06:58;15.62;78.03
66861;SHT31;53770;42.334;23.550;2022-07-29T03:09:26;15.66;77.92
66861;SHT31;53770;42.334;23.550;2022-07-29T03:11:54;15.69;77.74
66861;SHT31;53770;42.334;23.550;2022-07-29T03:14:22;15.69;77.36
66861;SHT31;53770;42.334;23.550;2022-07-29T03:16:50;15.66;77.60
66861;SHT31;53770;42.334;23.550;2022-07-29T03:19:17;15.63;77.63
66861;SHT31;53770;42.334;23.550;2022-07-29T03:21:46;15.69;77.76
66861;SHT31;53770;42.334;23.550;2022-07-29T03:24:25;15.74;77.65
66861;SHT31;53770;42.334;23.550;2022-07-29T03:26:52;15.77;77.49
66861;SHT31;53770;42.334;23.550;2022-07-29T03:29:18;15.89;77.09
66861;SHT31;53770;42.334;23.550;2022-07-29T03:31:45;15.90;76.68
66861;SHT31;53770;42.334;23.550;2022-07-29T03:34:12;15.89;76.60
66861;SHT31;53770;42.334;23.550;2022-07-29T03:36:39;15.83;76.73
66861;SHT31;53770;42.334;23.550;2022-07-29T03:39:09;15.80;76.78
66861;SHT31;53770;42.334;23.550;2022-07-29T03:41:38;15.70;77.26
66861;SHT31;53770;42.334;23.550;2022-07-29T03:44:07;15.69;77.32
66861;SHT31;53770;42.334;23.550;2022-07-29T03:46:35;15.73;77.22
66861;SHT31;53770;42.334;23.550;2022-07-29T03:49:04;15.79;77.49
66861;SHT31;53770;42.334;23.550;2022-07-29T03:51:33;15.82;76.90
66861;SHT31;53770;42.334;23.550;2022-07-29T03:54:01;15.82;76.91
66861;SHT31;53770;42.334;23.550;2022-07-29T03:56:32;15.87;76.74
66861;SHT31;53770;42.334;23.550;2022-07-29T03:59:01;15.84;76.66
66861;SHT31;53770;42.334;23.550;2022-07-29T04:01:28;15.87;76.73
66861;SHT31;53770;42.334;23.550;2022-07-29T04:03:55;15.94;76.35
66861;SHT31;53770;42.334;23.550;2022-07-29T04:06:22;15.96;76.41
66861;SHT31;53770;42.334;23.550;2022-07-29T04:08:48;16.10;76.32
66861;SHT31;53770;42.334;23.550;2022-07-29T04:11:15;16.13;76.17
66861;SHT31;53770;42.334;23.550;2022-07-29T04:13:43;16.24;75.85
66861;SHT31;53770;42.334;23.550;2022-07-29T04:16:10;16.25;75.70
66861;SHT31;53770;42.334;23.550;2022-07-29T04:18:37;16.31;75.49
66861;SHT31;53770;42.334;23.550;2022-07-29T04:21:03;16.38;75.50
66861;SHT31;53770;42.334;23.550;2022-07-29T04:23:30;16.41;75.69
66861;SHT31;53770;42.334;23.550;2022-07-29T04:25:58;16.47;75.60
66861;SHT31;53770;42.334;23.550;2022-07-29T04:28:26;16.59;75.49
66861;SHT31;53770;42.334;23.550;2022-07-29T04:30:54;16.69;75.28
66861;SHT31;53770;42.334;23.550;2022-07-29T04:33:21;16.81;74.89
66861;SHT31;53770;42.334;23.550;2022-07-29T04:35:48;16.86;74.33
66861;SHT31;53770;42.334;23.550;2022-07-29T04:38:15;16.93;74.23
66861;SHT31;53770;42.334;23.550;2022-07-29T04:40:41;16.93;74.42
66861;SHT31;53770;42.334;23.550;2022-07-29T04:43:08;16.99;74.90
66861;SHT31;53770;42.334;23.550;2022-07-29T04:45:35;17.00;75.53
66861;SHT31;53770;42.334;23.550;2022-07-29T04:48:04;16.99;75.91
66861;SHT31;53770;42.334;23.550;2022-07-29T04:50:30;16.96;76.19
66861;SHT31;53770;42.334;23.550;2022-07-29T04:52:58;16.86;76.67
66861;SHT31;53770;42.334;23.550;2022-07-29T04:55:24;16.86;76.89
66861;SHT31;53770;42.334;23.550;2022-07-29T04:57:51;16.94;76.83
66861;SHT31;53770;42.334;23.550;2022-07-29T05:00:18;17.08;76.73
66861;SHT31;53770;42.334;23.550;2022-07-29T05:02:45;17.25;76.49
66861;SHT31;53770;42.334;23.550;2022-07-29T05:05:13;17.41;76.23
66861;SHT31;53770;42.334;23.550;2022-07-29T05:07:40;17.46;75.85
66861;SHT31;53770;42.334;23.550;2022-07-29T05:10:07;17.46;75.64
66861;SHT31;53770;42.334;23.550;2022-07-29T05:12:35;17.48;75.85
66861;SHT31;53770;42.334;23.550;2022-07-29T05:15:02;17.55;75.95
66861;SHT31;53770;42.334;23.550;2022-07-29T05:17:28;17.65;75.84
66861;SHT31;53770;42.334;23.550;2022-07-29T05:19:55;17.69;75.14
66861;SHT31;53770;42.334;23.550;2022-07-29T05:22:23;17.71;75.14
66861;SHT31;53770;42.334;23.550;2022-07-29T05:24:50;17.78;75.15
66861;SHT31;53770;42.334;23.550;2022-07-29T05:27:17;17.87;75.13
66861;SHT31;53770;42.334;23.550;2022-07-29T05:29:43;18.02;74.94
66861;SHT31;53770;42.334;23.550;2022-07-29T05:32:10;18.09;74.78
66861;SHT31;53770;42.334;23.550;2022-07-29T05:34:37;18.16;75.24
66861;SHT31;53770;42.334;23.550;2022-07-29T05:37:04;18.24;75.52
66861;SHT31;53770;42.334;23.550;2022-07-29T05:39:32;18.38;75.44
66861;SHT31;53770;42.334;23.550;2022-07-29T05:41:59;18.45;75.26
66861;SHT31;53770;42.334;23.550;2022-07-29T05:44:25;18.57;74.75
66861;SHT31;53770;42.334;23.550;2022-07-29T05:46:52;18.62;74.49
66861;SHT31;53770;42.334;23.550;2022-07-29T05:49:19;18.71;74.21
66861;SHT31;53770;42.334;23.550;2022-07-29T05:51:46;18.76;73.97
66861;SHT31;53770;42.334;23.550;2022-07-29T05:54:14;18.86;73.81
66861;SHT31;53770;42.334;23.550;2022-07-29T05:56:42;18.96;73.52
66861;SHT31;53770;42.334;23.550;2022-07-29T05:59:09;19.06;73.24
66861;SHT31;53770;42.334;23.550;2022-07-29T06:01:35;19.17;72.62
66861;SHT31;53770;42.334;23.550;2022-07-29T06:04:05;19.23;72.39
66861;SHT31;53770;42.334;23.550;2022-07-29T06:06:32;19.34;72.04
66861;SHT31;53770;42.334;23.550;2022-07-29T06:08:59;19.47;71.87
66861;SHT31;53770;42.334;23.550;2022-07-29T06:11:25;19.60;71.89
66861;SHT31;53770;42.334;23.550;2022-07-29T06:13:54;19.79;72.22
66861;SHT31;53770;42.334;23.550;2022-07-29T06:16:20;20.05;72.19
66861;SHT31;53770;42.334;23.550;2022-07-29T06:18:47;20.33;72.65
66861;SHT31;53770;42.334;23.550;2022-07-29T06:21:14;20.56;71.98
66861;SHT31;53770;42.334;23.550;2022-07-29T06:23:41;20.83;70.75
66861;SHT31;53770;42.334;23.550;2022-07-29T06:26:07;21.05;71.03
66861;SHT31;53770;42.334;23.550;2022-07-29T06:28:35;21.32;70.46
66861;SHT31;53770;42.334;23.550;2022-07-29T06:31:03;21.59;69.32
66861;SHT31;53770;42.334;23.550;2022-07-29T06:33:29;21.80;68.49
66861;SHT31;53770;42.334;23.550;2022-07-29T06:35:56;21.95;68.23
66861;SHT31;53770;42.334;23.550;2022-07-29T06:38:23;22.12;67.97
66861;SHT31;53770;42.334;23.550;2022-07-29T06:40:50;22.22;67.21
66861;SHT31;53770;42.334;23.550;2022-07-29T06:43:34;22.36;66.61
66861;SHT31;53770;42.334;23.550;2022-07-29T06:46:04;22.49;66.15
66861;SHT31;53770;42.334;23.550;2022-07-29T06:48:32;22.60;66.55
66861;SHT31;53770;42.334;23.550;2022-07-29T06:50:59;22.67;65.70
66861;SHT31;53770;42.334;23.550;2022-07-29T06:53:26;22.76;66.24
66861;SHT31;53770;42.334;23.550;2022-07-29T06:55:53;22.86;63.09
66861;SHT31;53770;42.334;23.550;2022-07-29T06:58:20;22.87;64.23
66861;SHT31;53770;42.334;23.550;2022-07-29T07:00:47;22.87;65.00
66861;SHT31;53770;42.334;23.550;2022-07-29T07:03:16;22.94;65.15
66861;SHT31;53770;42.334;23.550;2022-07-29T07:05:43;23.01;65.31
66861;SHT31;53770;42.334;23.550;2022-07-29T07:08:10;23.07;63.67
66861;SHT31;53770;42.334;23.550;2022-07-29T07:10:37;23.14;63.55
66861;SHT31;53770;42.334;23.550;2022-07-29T07:13:04;23.27;63.87
66861;SHT31;53770;42.334;23.550;2022-07-29T07:15:31;23.37;64.91
66861;SHT31;53770;42.334;23.550;2022-07-29T07:17:59;23.46;63.43
66861;SHT31;53770;42.334;23.550;2022-07-29T07:20:27;23.54;62.93
66861;SHT31;53770;42.334;23.550;2022-07-29T07:22:54;23.59;61.58
66861;SHT31;53770;42.334;23.550;2022-07-29T07:25:21;23.61;60.80
66861;SHT31;53770;42.334;23.550;2022-07-29T07:27:48;23.69;61.09
66861;SHT31;53770;42.334;23.550;2022-07-29T07:30:14;23.75;59.83
66861;SHT31;53770;42.334;23.550;2022-07-29T07:32:41;23.80;60.33
66861;SHT31;53770;42.334;23.550;2022-07-29T07:35:09;23.92;60.06
66861;SHT31;53770;42.334;23.550;2022-07-29T07:37:37;24.04;60.43
66861;SHT31;53770;42.334;23.550;2022-07-29T07:40:06;24.13;59.33
66861;SHT31;53770;42.334;23.550;2022-07-29T07:42:33;24.23;58.20
66861;SHT31;53770;42.334;23.550;2022-07-29T07:45:00;24.21;56.94
66861;SHT31;53770;42.334;23.550;2022-07-29T07:47:27;24.32;57.04
66861;SHT31;53770;42.334;23.550;2022-07-29T07:49:54;24.41;56.93
66861;SHT31;53770;42.334;23.550;2022-07-29T07:52:21;24.54;57.75
66861;SHT31;53770;42.334;23.550;2022-07-29T07:54:49;24.58;56.84
66861;SHT31;53770;42.334;23.550;2022-07-29T07:57:16;24.69;57.12
66861;SHT31;53770;42.334;23.550;2022-07-29T07:59:43;24.78;56.92
66861;SHT31;53770;42.334;23.550;2022-07-29T08:02:10;24.86;57.15
66861;SHT31;53770;42.334;23.550;2022-07-29T08:04:37;24.97;57.37
66861;SHT31;53770;42.334;23.550;2022-07-29T08:07:05;25.03;57.90
66861;SHT31;53770;42.334;23.550;2022-07-29T08:09:32;25.13;57.18
66861;SHT31;53770;42.334;23.550;2022-07-29T08:12:01;25.22;57.09
66861;SHT31;53770;42.334;23.550;2022-07-29T08:14:29;25.27;56.70
66861;SHT31;53770;42.334;23.550;2022-07-29T08:16:56;25.26;55.82
66861;SHT31;53770;42.334;23.550;2022-07-29T08:19:23;25.30;56.33
66861;SHT31;53770;42.334;23.550;2022-07-29T08:21:50;25.38;57.05
66861;SHT31;53770;42.334;23.550;2022-07-29T08:24:18;25.54;56.58
66861;SHT31;53770;42.334;23.550;2022-07-29T08:27:04;25.70;56.80
66861;SHT31;53770;42.334;23.550;2022-07-29T08:29:31;25.89;56.01
66861;SHT31;53770;42.334;23.550;2022-07-29T08:31:58;26.05;55.30
66861;SHT31;53770;42.334;23.550;2022-07-29T08:34:25;26.23;55.95
66861;SHT31;53770;42.334;23.550;2022-07-29T08:36:52;26.41;55.81
66861;SHT31;53770;42.334;23.550;2022-07-29T08:39:18;26.67;55.34
66861;SHT31;53770;42.334;23.550;2022-07-29T08:41:45;26.85;54.57
66861;SHT31;53770;42.334;23.550;2022-07-29T08:44:15;27.03;54.04
66861;SHT31;53770;42.334;23.550;2022-07-29T08:46:42;27.26;53.01
66861;SHT31;53770;42.334;23.550;2022-07-29T08:49:09;27.50;51.19
66861;SHT31;53770;42.334;23.550;2022-07-29T08:51:36;27.56;49.93
66861;SHT31;53770;42.334;23.550;2022-07-29T08:54:06;27.56;49.55
66861;SHT31;53770;42.334;23.550;2022-07-29T08:56:34;27.66;50.00
66861;SHT31;53770;42.334;23.550;2022-07-29T08:59:03;27.84;50.10
66861;SHT31;53770;42.334;23.550;2022-07-29T09:01:32;28.09;47.78
66861;SHT31;53770;42.334;23.550;2022-07-29T09:04:01;28.31;47.46
66861;SHT31;53770;42.334;23.550;2022-07-29T09:06:31;28.52;47.31
66861;SHT31;53770;42.334;23.550;2022-07-29T09:08:59;29.00;46.44
66861;SHT31;53770;42.334;23.550;2022-07-29T09:11:27;29.62;45.59
66861;SHT31;53770;42.334;23.550;2022-07-29T09:13:53;30.09;43.01
66861;SHT31;53770;42.334;23.550;2022-07-29T09:16:20;30.31;41.68
66861;SHT31;53770;42.334;23.550;2022-07-29T09:18:48;30.72;42.34
66861;SHT31;53770;42.334;23.550;2022-07-29T09:21:16;31.04;41.17
66861;SHT31;53770;42.334;23.550;2022-07-29T09:24:04;30.78;40.05
66861;SHT31;53770;42.334;23.550;2022-07-29T09:26:32;30.55;40.62
66861;SHT31;53770;42.334;23.550;2022-07-29T09:29:01;30.17;39.95
66861;SHT31;53770;42.334;23.550;2022-07-29T09:31:35;29.67;41.39
66861;SHT31;53770;42.334;23.550;2022-07-29T09:34:03;29.76;41.33
66861;SHT31;53770;42.334;23.550;2022-07-29T09:36:30;29.86;41.24
66861;SHT31;53770;42.334;23.550;2022-07-29T09:38:58;30.23;40.14
66861;SHT31;53770;42.334;23.550;2022-07-29T09:41:26;30.83;39.04
66861;SHT31;53770;42.334;23.550;2022-07-29T09:43:54;31.50;37.18
66861;SHT31;53770;42.334;23.550;2022-07-29T09:46:22;31.86;36.88
66861;SHT31;53770;42.334;23.550;2022-07-29T09:49:11;32.01;34.25
66861;SHT31;53770;42.334;23.550;2022-07-29T09:51:38;32.13;34.82
66861;SHT31;53770;42.334;23.550;2022-07-29T09:54:23;32.06;33.66
66861;SHT31;53770;42.334;23.550;2022-07-29T09:56:51;32.01;35.63
66861;SHT31;53770;42.334;23.550;2022-07-29T09:59:18;32.52;35.38
66861;SHT31;53770;42.334;23.550;2022-07-29T10:01:48;33.04;34.49
66861;SHT31;53770;42.334;23.550;2022-07-29T10:04:17;33.70;32.76
66861;SHT31;53770;42.334;23.550;2022-07-29T10:06:58;34.73;30.71
66861;SHT31;53770;42.334;23.550;2022-07-29T10:09:26;35.62;29.28
66861;SHT31;53770;42.334;23.550;2022-07-29T10:12:06;36.25;29.18
66861;SHT31;53770;42.334;23.550;2022-07-29T10:14:34;36.74;28.88
66861;SHT31;53770;42.334;23.550;2022-07-29T10:17:03;37.02;27.83
66861;SHT31;53770;42.334;23.550;2022-07-29T10:19:33;37.21;27.54
66861;SHT31;53770;42.334;23.550;2022-07-29T10:22:01;37.45;27.48
66861;SHT31;53770;42.334;23.550;2022-07-29T10:24:29;37.81;27.27
66861;SHT31;53770;42.334;23.550;2022-07-29T10:26:58;38.68;26.38
66861;SHT31;53770;42.334;23.550;2022-07-29T10:29:26;39.66;25.41
66861;SHT31;53770;42.334;23.550;2022-07-29T10:32:07;40.54;24.59
66861;SHT31;53770;42.334;23.550;2022-07-29T10:34:51;40.05;25.15
66861;SHT31;53770;42.334;23.550;2022-07-29T10:37:28;38.83;25.60
66861;SHT31;53770;42.334;23.550;2022-07-29T10:40:03;38.73;25.80
66861;SHT31;53770;42.334;23.550;2022-07-29T10:42:54;38.25;25.96
66861;SHT31;53770;42.334;23.550;2022-07-29T10:45:22;37.28;26.34
66861;SHT31;53770;42.334;23.550;2022-07-29T10:48:02;36.66;27.42
66861;SHT31;53770;42.334;23.550;2022-07-29T10:50:56;37.05;26.80
66861;SHT31;53770;42.334;23.550;2022-07-29T10:53:24;36.70;27.12
66861;SHT31;53770;42.334;23.550;2022-07-29T10:55:52;36.22;27.01
66861;SHT31;53770;42.334;23.550;2022-07-29T10:58:20;35.02;28.52
66861;SHT31;53770;42.334;23.550;2022-07-29T11:00:48;34.10;30.27
66861;SHT31;53770;42.334;23.550;2022-07-29T11:03:44;33.22;31.19
66861;SHT31;53770;42.334;23.550;2022-07-29T11:06:13;32.43;31.77
66861;SHT31;53770;42.334;23.550;2022-07-29T11:08:41;31.72;33.15
66861;SHT31;53770;42.334;23.550;2022-07-29T11:11:35;31.13;34.05
66861;SHT31;53770;42.334;23.550;2022-07-29T11:14:06;31.15;34.38
66861;SHT31;53770;42.334;23.550;2022-07-29T11:17:02;32.84;31.50
66861;SHT31;53770;42.334;23.550;2022-07-29T11:19:29;33.29;31.39
66861;SHT31;53770;42.334;23.550;2022-07-29T11:21:58;33.73;30.19
66861;SHT31;53770;42.334;23.550;2022-07-29T11:24:26;34.87;29.52
66861;SHT31;53770;42.334;23.550;2022-07-29T11:27:06;36.02;28.91
66861;SHT31;53770;42.334;23.550;2022-07-29T11:29:35;37.81;26.28
66861;SHT31;53770;42.334;23.550;2022-07-29T11:32:12;39.43;24.98
66861;SHT31;53770;42.334;23.550;2022-07-29T11:34:40;40.39;23.94
66861;SHT31;53770;42.334;23.550;2022-07-29T11:37:22;40.63;23.49
66861;SHT31;53770;42.334;23.550;2022-07-29T11:40:11;39.82;24.24
66861;SHT31;53770;42.334;23.550;2022-07-29T11:42:45;38.45;25.72
66861;SHT31;53770;42.334;23.550;2022-07-29T11:45:23;37.29;27.04
66861;SHT31;53770;42.334;23.550;2022-07-29T11:47:55;36.60;28.00
66861;SHT31;53770;42.334;23.550;2022-07-29T11:50:30;37.08;27.40
66861;SHT31;53770;42.334;23.550;2022-07-29T11:52:59;37.97;26.45
66861;SHT31;53770;42.334;23.550;2022-07-29T11:55:26;38.32;25.89
66861;SHT31;53770;42.334;23.550;2022-07-29T11:57:55;38.42;25.76
66861;SHT31;53770;42.334;23.550;2022-07-29T12:00:27;39.75;24.37
66861;SHT31;53770;42.334;23.550;2022-07-29T12:02:55;39.73;24.46
66861;SHT31;53770;42.334;23.550;2022-07-29T12:05:38;38.84;25.01
66861;SHT31;53770;42.334;23.550;2022-07-29T12:08:09;39.23;24.51
66861;SHT31;53770;42.334;23.550;2022-07-29T12:10:36;40.46;23.07
66861;SHT31;53770;42.334;23.550;2022-07-29T12:13:03;40.91;22.74
66861;SHT31;53770;42.334;23.550;2022-07-29T12:15:30;41.33;22.00
66861;SHT31;53770;42.334;23.550;2022-07-29T12:17:57;41.73;22.25
66861;SHT31;53770;42.334;23.550;2022-07-29T12:20:25;42.46;21.76
66861;SHT31;53770;42.334;23.550;2022-07-29T12:22:52;41.83;22.05
66861;SHT31;53770;42.334;23.550;2022-07-29T12:25:22;41.49;22.51
66861;SHT31;53770;42.334;23.550;2022-07-29T12:27:59;42.96;21.84
66861;SHT31;53770;42.334;23.550;2022-07-29T12:30:35;43.69;20.87
66861;SHT31;53770;42.334;23.550;2022-07-29T12:33:10;43.78;21.18
66861;SHT31;53770;42.334;23.550;2022-07-29T12:35:37;44.24;20.23
66861;SHT31;53770;42.334;23.550;2022-07-29T12:38:05;45.13;19.60
66861;SHT31;53770;42.334;23.550;2022-07-29T12:40:33;45.98;19.18
66861;SHT31;53770;42.334;23.550;2022-07-29T12:43:11;45.94;18.97
66861;SHT31;53770;42.334;23.550;2022-07-29T12:45:39;45.93;19.13
66861;SHT31;53770;42.334;23.550;2022-07-29T12:48:06;46.25;19.08
66861;SHT31;53770;42.334;23.550;2022-07-29T12:50:35;47.23;18.42
66861;SHT31;53770;42.334;23.550;2022-07-29T12:53:09;48.04;17.66
66861;SHT31;53770;42.334;23.550;2022-07-29T12:55:45;48.39;17.20
66861;SHT31;53770;42.334;23.550;2022-07-29T12:58:25;48.29;17.44
66861;SHT31;53770;42.334;23.550;2022-07-29T13:01:08;48.57;17.23
66861;SHT31;53770;42.334;23.550;2022-07-29T13:03:44;48.94;17.09
66861;SHT31;53770;42.334;23.550;2022-07-29T13:06:28;49.32;16.65
66861;SHT31;53770;42.334;23.550;2022-07-29T13:08:59;49.53;16.41
66861;SHT31;53770;42.334;23.550;2022-07-29T13:11:29;49.63;16.26
66861;SHT31;53770;42.334;23.550;2022-07-29T13:13:56;49.45;16.38
66861;SHT31;53770;42.334;23.550;2022-07-29T13:16:23;49.59;16.30
66861;SHT31;53770;42.334;23.550;2022-07-29T13:19:03;49.68;16.16
66861;SHT31;53770;42.334;23.550;2022-07-29T13:21:30;49.96;15.86
66861;SHT31;53770;42.334;23.550;2022-07-29T13:23:57;50.16;15.88
66861;SHT31;53770;42.334;23.550;2022-07-29T13:26:24;50.41;15.60
66861;SHT31;53770;42.334;23.550;2022-07-29T13:28:52;50.62;15.30
66861;SHT31;53770;42.334;23.550;2022-07-29T13:31:19;50.85;15.18
66861;SHT31;53770;42.334;23.550;2022-07-29T13:33:46;50.95;15.02
66861;SHT31;53770;42.334;23.550;2022-07-29T13:36:13;50.92;15.16
66861;SHT31;53770;42.334;23.550;2022-07-29T13:38:39;50.72;14.94
66861;SHT31;53770;42.334;23.550;2022-07-29T13:41:06;50.52;15.14
66861;SHT31;53770;42.334;23.550;2022-07-29T13:43:33;50.38;15.44
66861;SHT31;53770;42.334;23.550;2022-07-29T13:46:01;50.21;15.46
66861;SHT31;53770;42.334;23.550;2022-07-29T13:48:28;50.11;15.69
66861;SHT31;53770;42.334;23.550;2022-07-29T13:50:56;50.17;15.66
66861;SHT31;53770;42.334;23.550;2022-07-29T13:53:23;50.27;15.43
66861;SHT31;53770;42.334;23.550;2022-07-29T13:55:49;50.34;15.58
66861;SHT31;53770;42.334;23.550;2022-07-29T13:58:17;50.17;15.55
66861;SHT31;53770;42.334;23.550;2022-07-29T14:00:44;49.79;16.18
66861;SHT31;53770;42.334;23.550;2022-07-29T14:03:13;49.63;16.17
66861;SHT31;53770;42.334;23.550;2022-07-29T14:05:40;49.35;16.47
66861;SHT31;53770;42.334;23.550;2022-07-29T14:08:06;49.15;17.79
66861;SHT31;53770;42.334;23.550;2022-07-29T14:10:33;48.86;16.89
66861;SHT31;53770;42.334;23.550;2022-07-29T14:13:00;48.32;16.27
66861;SHT31;53770;42.334;23.550;2022-07-29T14:15:27;47.86;16.63
66861;SHT31;53770;42.334;23.550;2022-07-29T14:17:54;47.41;17.09
66861;SHT31;53770;42.334;23.550;2022-07-29T14:20:22;46.97;17.09
66861;SHT31;53770;42.334;23.550;2022-07-29T14:22:49;46.28;17.51
66861;SHT31;53770;42.334;23.550;2022-07-29T14:25:15;45.60;17.73
66861;SHT31;53770;42.334;23.550;2022-07-29T14:27:42;45.11;18.44
66861;SHT31;53770;42.334;23.550;2022-07-29T14:30:10;44.36;18.80
66861;SHT31;53770;42.334;23.550;2022-07-29T14:32:37;43.61;19.69
66861;SHT31;53770;42.334;23.550;2022-07-29T14:35:05;43.10;20.07
66861;SHT31;53770;42.334;23.550;2022-07-29T14:37:33;42.50;20.43
66861;SHT31;53770;42.334;23.550;2022-07-29T14:40:00;41.81;20.84
66861;SHT31;53770;42.334;23.550;2022-07-29T14:42:29;41.12;21.73
66861;SHT31;53770;42.334;23.550;2022-07-29T14:44:56;40.30;23.16
66861;SHT31;53770;42.334;23.550;2022-07-29T14:47:23;39.55;23.54
66861;SHT31;53770;42.334;23.550;2022-07-29T14:49:50;38.75;23.62
66861;SHT31;53770;42.334;23.550;2022-07-29T14:52:16;38.00;24.21
66861;SHT31;53770;42.334;23.550;2022-07-29T14:54:44;37.28;24.99
66861;SHT31;53770;42.334;23.550;2022-07-29T14:57:11;36.53;26.18
66861;SHT31;53770;42.334;23.550;2022-07-29T14:59:38;35.91;25.69
66861;SHT31;53770;42.334;23.550;2022-07-29T15:02:05;35.30;26.67
66861;SHT31;53770;42.334;23.550;2022-07-29T15:04:31;34.66;28.24
66861;SHT31;53770;42.334;23.550;2022-07-29T15:06:58;34.07;28.96
66861;SHT31;53770;42.334;23.550;2022-07-29T15:09:25;33.59;29.42
66861;SHT31;53770;42.334;23.550;2022-07-29T15:11:53;33.08;30.25
66861;SHT31;53770;42.334;23.550;2022-07-29T15:14:20;32.68;30.45
66861;SHT31;53770;42.334;23.550;2022-07-29T15:16:47;32.27;30.33
66861;SHT31;53770;42.334;23.550;2022-07-29T15:19:14;31.99;30.76
66861;SHT31;53770;42.334;23.550;2022-07-29T15:21:41;31.71;31.30
66861;SHT31;53770;42.334;23.550;2022-07-29T15:24:08;31.41;32.08
66861;SHT31;53770;42.334;23.550;2022-07-29T15:26:34;31.09;31.06
66861;SHT31;53770;42.334;23.550;2022-07-29T15:29:03;30.88;32.17